sensor_id;sensor_type;location;lat;lon;timestamp;temperature;humidity
15158;DHT22;7679;48.796;9.056;2022-07-19T00:04:33;26.80;47.30
15158;DHT22;7679;48.796;9.056;2022-07-19T00:15:00;26.80;47.40
15158;DHT22;7679;48.796;9.056;2022-07-19T00:25:24;26.80;47.30
15158;DHT22;7679;48.796;9.056;2022-07-19T00:35:51;26.80;47.30
15158;DHT22;7679;48.796;9.056;2022-07-19T00:46:16;26.80;47.30
15158;DHT22;7679;48.796;9.056;2022-07-19T00:56:44;26.80;47.30
15158;DHT22;7679;48.796;9.056;2022-07-19T01:07:11;26.80;47.30
15158;DHT22;7679;48.796;9.056;2022-07-19T01:17:37;26.80;47.40
15158;DHT22;7679;48.796;9.056;2022-07-19T01:28:05;26.80;47.30
15158;DHT22;7679;48.796;9.056;2022-07-19T01:38:28;26.80;47.40
15158;DHT22;7679;48.796;9.056;2022-07-19T01:48:55;26.80;47.40
15158;DHT22;7679;48.796;9.056;2022-07-19T01:59:19;26.80;47.40
15158;DHT22;7679;48.796;9.056;2022-07-19T02:09:45;26.80;47.30
15158;DHT22;7679;48.796;9.056;2022-07-19T02:20:10;26.80;47.30
15158;DHT22;7679;48.796;9.056;2022-07-19T02:30:37;26.80;47.30
15158;DHT22;7679;48.796;9.056;2022-07-19T02:41:00;26.80;47.30
15158;DHT22;7679;48.796;9.056;2022-07-19T02:51:27;26.80;47.90
15158;DHT22;7679;48.796;9.056;2022-07-19T03:01:52;26.80;47.30
15158;DHT22;7679;48.796;9.056;2022-07-19T03:12:18;26.80;47.40
15158;DHT22;7679;48.796;9.056;2022-07-19T03:22:42;26.80;47.40
15158;DHT22;7679;48.796;9.056;2022-07-19T03:33:09;26.80;47.40
15158;DHT22;7679;48.796;9.056;2022-07-19T03:43:37;26.80;47.30
15158;DHT22;7679;48.796;9.056;2022-07-19T03:54:03;26.80;47.30
15158;DHT22;7679;48.796;9.056;2022-07-19T04:04:29;26.80;47.20
15158;DHT22;7679;48.796;9.056;2022-07-19T04:14:55;26.70;47.20
15158;DHT22;7679;48.796;9.056;2022-07-19T04:25:19;26.70;47.20
15158;DHT22;7679;48.796;9.056;2022-07-19T04:35:45;26.70;47.10
15158;DHT22;7679;48.796;9.056;2022-07-19T04:46:09;26.50;46.50
15158;DHT22;7679;48.796;9.056;2022-07-19T04:56:35;26.50;46.40
15158;DHT22;7679;48.796;9.056;2022-07-19T05:06:59;26.50;46.40
15158;DHT22;7679;48.796;9.056;2022-07-19T05:17:25;26.50;46.70
15158;DHT22;7679;48.796;9.056;2022-07-19T05:27:49;26.40;46.80
15158;DHT22;7679;48.796;9.056;2022-07-19T05:38:15;26.40;46.90
15158;DHT22;7679;48.796;9.056;2022-07-19T05:48:39;26.20;46.80
15158;DHT22;7679;48.796;9.056;2022-07-19T05:59:05;26.10;47.50
15158;DHT22;7679;48.796;9.056;2022-07-19T06:09:28;26.10;48.10
15158;DHT22;7679;48.796;9.056;2022-07-19T06:19:55;26.10;48.00
15158;DHT22;7679;48.796;9.056;2022-07-19T06:30:18;26.30;47.70
15158;DHT22;7679;48.796;9.056;2022-07-19T06:40:45;26.40;47.60
15158;DHT22;7679;48.796;9.056;2022-07-19T06:51:09;26.40;47.50
15158;DHT22;7679;48.796;9.056;2022-07-19T07:01:35;26.50;47.30
15158;DHT22;7679;48.796;9.056;2022-07-19T07:11:58;26.50;47.40
15158;DHT22;7679;48.796;9.056;2022-07-19T07:22:25;26.50;47.30
15158;DHT22;7679;48.796;9.056;2022-07-19T07:32:49;26.60;47.30
15158;DHT22;7679;48.796;9.056;2022-07-19T07:43:15;26.50;47.20
15158;DHT22;7679;48.796;9.056;2022-07-19T07:53:39;26.60;47.30
15158;DHT22;7679;48.796;9.056;2022-07-19T08:04:05;26.60;47.30
15158;DHT22;7679;48.796;9.056;2022-07-19T08:14:29;26.60;47.30
15158;DHT22;7679;48.796;9.056;2022-07-19T08:24:55;26.70;47.40
15158;DHT22;7679;48.796;9.056;2022-07-19T08:35:19;26.60;47.30
15158;DHT22;7679;48.796;9.056;2022-07-19T08:45:45;26.70;47.50
15158;DHT22;7679;48.796;9.056;2022-07-19T08:56:09;26.70;47.40
15158;DHT22;7679;48.796;9.056;2022-07-19T09:06:50;26.70;47.50
15158;DHT22;7679;48.796;9.056;2022-07-19T09:17:14;26.70;47.50
15158;DHT22;7679;48.796;9.056;2022-07-19T09:46:47;26.70;47.40
15158;DHT22;7679;48.796;9.056;2022-07-19T09:57:12;26.70;47.40
15158;DHT22;7679;48.796;9.056;2022-07-19T10:07:40;26.70;47.40
15158;DHT22;7679;48.796;9.056;2022-07-19T10:18:09;26.70;47.50
15158;DHT22;7679;48.796;9.056;2022-07-19T10:28:37;26.70;47.60
15158;DHT22;7679;48.796;9.056;2022-07-19T10:39:20;26.70;47.50
15158;DHT22;7679;48.796;9.056;2022-07-19T10:49:48;26.70;47.50
15158;DHT22;7679;48.796;9.056;2022-07-19T11:00:16;26.80;47.60
15158;DHT22;7679;48.796;9.056;2022-07-19T11:10:43;26.80;47.60
15158;DHT22;7679;48.796;9.056;2022-07-19T11:21:07;26.80;47.60
15158;DHT22;7679;48.796;9.056;2022-07-19T11:31:33;26.80;47.60
15158;DHT22;7679;48.796;9.056;2022-07-19T11:41:57;26.80;47.70
15158;DHT22;7679;48.796;9.056;2022-07-19T11:52:23;26.80;47.60
15158;DHT22;7679;48.796;9.056;2022-07-19T12:02:55;26.80;47.60
15158;DHT22;7679;48.796;9.056;2022-07-19T12:13:31;26.80;47.60
15158;DHT22;7679;48.796;9.056;2022-07-19T12:24:12;26.80;47.60
15158;DHT22;7679;48.796;9.056;2022-07-19T12:34:46;26.80;47.60
15158;DHT22;7679;48.796;9.056;2022-07-19T12:45:12;26.90;47.70
15158;DHT22;7679;48.796;9.056;2022-07-19T12:55:39;26.80;47.60
15158;DHT22;7679;48.796;9.056;2022-07-19T13:06:04;26.90;47.90
15158;DHT22;7679;48.796;9.056;2022-07-19T13:16:30;26.80;47.90
15158;DHT22;7679;48.796;9.056;2022-07-19T13:26:54;26.90;48.00
15158;DHT22;7679;48.796;9.056;2022-07-19T13:37:20;26.90;48.00
15158;DHT22;7679;48.796;9.056;2022-07-19T13:47:44;26.90;48.10
15158;DHT22;7679;48.796;9.056;2022-07-19T13:58:10;26.90;48.10
15158;DHT22;7679;48.796;9.056;2022-07-19T14:08:34;26.90;48.20
15158;DHT22;7679;48.796;9.056;2022-07-19T14:19:00;26.90;48.20
15158;DHT22;7679;48.796;9.056;2022-07-19T14:29:24;26.90;48.20
15158;DHT22;7679;48.796;9.056;2022-07-19T14:39:50;27.00;48.30
15158;DHT22;7679;48.796;9.056;2022-07-19T14:50:15;26.90;48.20
15158;DHT22;7679;48.796;9.056;2022-07-19T15:00:41;26.90;48.30
15158;DHT22;7679;48.796;9.056;2022-07-19T15:11:05;27.00;48.40
15158;DHT22;7679;48.796;9.056;2022-07-19T15:21:33;27.00;48.40
15158;DHT22;7679;48.796;9.056;2022-07-19T15:31:57;27.00;48.30
15158;DHT22;7679;48.796;9.056;2022-07-19T15:42:24;27.00;48.30
15158;DHT22;7679;48.796;9.056;2022-07-19T15:52:47;27.00;48.30
15158;DHT22;7679;48.796;9.056;2022-07-19T16:03:14;27.00;48.40
15158;DHT22;7679;48.796;9.056;2022-07-19T16:13:38;27.00;48.50
15158;DHT22;7679;48.796;9.056;2022-07-19T16:24:05;27.00;48.40
15158;DHT22;7679;48.796;9.056;2022-07-19T16:34:29;27.00;48.50
15158;DHT22;7679;48.796;9.056;2022-07-19T16:44:55;27.00;48.40
15158;DHT22;7679;48.796;9.056;2022-07-19T16:55:19;27.00;48.40
15158;DHT22;7679;48.796;9.056;2022-07-19T17:05:45;27.00;48.50
15158;DHT22;7679;48.796;9.056;2022-07-19T17:16:09;27.00;48.50
15158;DHT22;7679;48.796;9.056;2022-07-19T17:26:35;27.00;48.60
15158;DHT22;7679;48.796;9.056;2022-07-19T17:36:59;27.00;48.60
15158;DHT22;7679;48.796;9.056;2022-07-19T17:47:25;27.00;48.60
15158;DHT22;7679;48.796;9.056;2022-07-19T17:57:50;27.00;48.70
15158;DHT22;7679;48.796;9.056;2022-07-19T18:08:16;27.00;48.60
15158;DHT22;7679;48.796;9.056;2022-07-19T18:18:40;27.00;48.60
15158;DHT22;7679;48.796;9.056;2022-07-19T18:29:10;27.00;48.70
15158;DHT22;7679;48.796;9.056;2022-07-19T18:39:34;26.90;48.50
15158;DHT22;7679;48.796;9.056;2022-07-19T18:50:03;27.00;48.60
15158;DHT22;7679;48.796;9.056;2022-07-19T19:00:27;27.00;48.60
15158;DHT22;7679;48.796;9.056;2022-07-19T19:10:53;27.00;48.60
15158;DHT22;7679;48.796;9.056;2022-07-19T19:21:17;27.00;48.60
15158;DHT22;7679;48.796;9.056;2022-07-19T19:31:43;27.00;48.60
15158;DHT22;7679;48.796;9.056;2022-07-19T19:42:07;27.00;48.60
15158;DHT22;7679;48.796;9.056;2022-07-19T19:52:34;27.00;48.60
15158;DHT22;7679;48.796;9.056;2022-07-19T20:02:57;27.00;48.70
15158;DHT22;7679;48.796;9.056;2022-07-19T20:13:23;27.00;48.60
15158;DHT22;7679;48.796;9.056;2022-07-19T20:23:48;26.90;48.60
15158;DHT22;7679;48.796;9.056;2022-07-19T20:34:15;27.00;48.70
15158;DHT22;7679;48.796;9.056;2022-07-19T20:44:38;27.00;48.60
15158;DHT22;7679;48.796;9.056;2022-07-19T20:55:05;26.90;48.50
15158;DHT22;7679;48.796;9.056;2022-07-19T21:05:29;27.00;48.60
15158;DHT22;7679;48.796;9.056;2022-07-19T21:15:56;27.00;48.60
15158;DHT22;7679;48.796;9.056;2022-07-19T21:26:19;27.00;48.60
15158;DHT22;7679;48.796;9.056;2022-07-19T21:36:46;26.90;48.50
15158;DHT22;7679;48.796;9.056;2022-07-19T21:47:10;27.00;48.60
15158;DHT22;7679;48.796;9.056;2022-07-19T21:57:36;27.00;48.60
15158;DHT22;7679;48.796;9.056;2022-07-19T22:08:00;27.00;48.60
15158;DHT22;7679;48.796;9.056;2022-07-19T22:18:26;27.00;48.60
15158;DHT22;7679;48.796;9.056;2022-07-19T22:28:50;26.90;48.50
15158;DHT22;7679;48.796;9.056;2022-07-19T22:39:16;27.00;48.40
15158;DHT22;7679;48.796;9.056;2022-07-19T22:49:40;26.90;48.30
15158;DHT22;7679;48.796;9.056;2022-07-19T23:00:09;27.00;48.30
15158;DHT22;7679;48.796;9.056;2022-07-19T23:10:33;26.90;48.10
15158;DHT22;7679;48.796;9.056;2022-07-19T23:20:59;27.00;48.10
15158;DHT22;7679;48.796;9.056;2022-07-19T23:31:23;27.00;48.10
15158;DHT22;7679;48.796;9.056;2022-07-19T23:41:49;26.90;48.00
15158;DHT22;7679;48.796;9.056;2022-07-19T23:52:13;26.90;47.90
